createdAt,value
2023-02-25T00:00:34.455Z,3.95
2023-02-25T00:03:01.990Z,3.55
2023-02-25T00:05:32.008Z,5.47
2023-02-25T00:07:59.961Z,3.65
2023-02-25T00:10:27.774Z,4.00
2023-02-25T00:12:56.322Z,4.60
2023-02-25T00:15:28.014Z,5.78
2023-02-25T00:17:55.273Z,4.57
2023-02-25T00:20:22.753Z,4.57
2023-02-25T00:22:53.460Z,5.25
2023-02-25T00:25:20.823Z,4.75
2023-02-25T00:27:48.082Z,5.57
2023-02-25T00:30:15.475Z,5.18
2023-02-25T00:32:42.795Z,4.22
2023-02-25T00:35:12.765Z,4.13
2023-02-25T00:37:40.102Z,4.28
2023-02-25T00:40:17.654Z,4.28
2023-02-25T00:42:45.017Z,4.95
2023-02-25T00:45:12.679Z,4.00
2023-02-25T00:47:40.035Z,3.75
2023-02-25T00:50:09.763Z,5.28
2023-02-25T00:52:38.348Z,3.65
2023-02-25T00:55:06.772Z,4.13
2023-02-25T00:57:34.141Z,4.38
2023-02-25T01:00:01.536Z,4.38
2023-02-25T01:02:29.564Z,4.82
2023-02-25T01:04:56.937Z,3.72
2023-02-25T01:07:24.460Z,3.38
2023-02-25T01:09:52.004Z,3.78
2023-02-25T01:12:19.261Z,3.90
2023-02-25T01:14:46.764Z,3.67
2023-02-25T01:17:13.981Z,2.90
2023-02-25T01:19:41.333Z,3.83
2023-02-25T01:22:08.933Z,4.05
2023-02-25T01:24:36.311Z,3.50
2023-02-25T01:27:04.518Z,5.22
2023-02-25T01:29:39.273Z,4.47
2023-02-25T01:32:08.764Z,3.85
2023-02-25T01:34:36.254Z,3.95
2023-02-25T01:37:03.938Z,4.13
2023-02-25T01:39:32.399Z,4.82
2023-02-25T01:42:00.478Z,4.47
2023-02-25T01:44:32.384Z,5.97
2023-02-25T01:46:59.977Z,4.07
2023-02-25T01:49:33.424Z,4.45
2023-02-25T01:52:05.027Z,5.45
2023-02-25T01:54:33.653Z,5.78
2023-02-25T01:57:01.099Z,3.95
2023-02-25T01:59:29.718Z,4.22
2023-02-25T02:01:57.262Z,4.45
2023-02-25T02:04:27.333Z,4.07
2023-02-25T02:06:55.734Z,4.63
2023-02-25T02:09:26.641Z,4.03
2023-02-25T02:11:54.118Z,4.68
2023-02-25T02:14:22.819Z,4.60
2023-02-25T02:17:06.095Z,3.75
2023-02-25T02:19:49.818Z,3.92
2023-02-25T02:22:17.093Z,4.47
2023-02-25T02:24:44.443Z,3.85
2023-02-25T02:27:11.712Z,4.75
2023-02-25T02:29:45.520Z,3.58
2023-02-25T02:32:27.361Z,4.68
2023-02-25T02:35:01.107Z,5.82
2023-02-25T02:37:28.338Z,7.00
2023-02-25T02:40:05.933Z,4.70
2023-02-25T02:42:42.265Z,6.07
2023-02-25T02:45:16.968Z,5.32
2023-02-25T02:47:50.375Z,4.90
2023-02-25T02:50:37.789Z,4.90
2023-02-25T02:53:11.094Z,4.30
2023-02-25T02:55:43.960Z,4.28
2023-02-25T02:58:14.171Z,3.97
2023-02-25T03:00:43.308Z,3.67
2023-02-25T03:03:15.465Z,4.63
2023-02-25T03:05:44.052Z,4.57
2023-02-25T03:08:16.501Z,5.07
2023-02-25T03:10:44.786Z,5.30
2023-02-25T03:13:12.186Z,5.03
2023-02-25T03:15:40.410Z,3.47
2023-02-25T03:18:13.056Z,3.63
2023-02-25T03:20:45.377Z,3.85
2023-02-25T03:23:18.568Z,3.53
2023-02-25T03:25:47.755Z,5.07
2023-02-25T03:28:21.283Z,2.97
2023-02-25T03:31:03.325Z,4.40
2023-02-25T03:33:33.897Z,3.22
2023-02-25T03:36:07.232Z,3.20
2023-02-25T03:38:36.002Z,4.15
2023-02-25T03:41:04.331Z,3.63
2023-02-25T03:43:34.486Z,3.38
2023-02-25T03:46:03.062Z,3.38
2023-02-25T03:48:30.751Z,3.30
2023-02-25T03:51:02.241Z,3.75
2023-02-25T03:53:52.485Z,3.58
2023-02-25T03:56:19.850Z,3.30
2023-02-25T03:58:47.330Z,2.95
2023-02-25T04:01:20.740Z,3.40
2023-02-25T04:03:48.308Z,3.55
2023-02-25T04:06:15.711Z,4.55
2023-02-25T04:08:43.331Z,3.20
2023-02-25T04:11:10.874Z,3.10
2023-02-25T04:13:38.235Z,4.20
2023-02-25T04:16:05.970Z,3.88
2023-02-25T04:18:33.255Z,3.65
2023-02-25T04:21:00.540Z,3.60
2023-02-25T04:23:28.035Z,4.53
2023-02-25T04:25:55.304Z,3.35
2023-02-25T04:28:22.581Z,4.55
2023-02-25T04:30:50.453Z,3.95
2023-02-25T04:33:17.824Z,4.95
2023-02-25T04:35:48.496Z,3.38
2023-02-25T04:38:15.794Z,3.03
2023-02-25T04:41:00.502Z,3.65
2023-02-25T04:43:59.595Z,2.83
2023-02-25T05:00:34.168Z,3.10
2023-02-25T05:03:06.110Z,3.17
2023-02-25T05:08:21.230Z,2.88
2023-02-25T05:10:54.114Z,2.85
2023-02-25T05:13:24.136Z,3.35
2023-02-25T05:15:51.672Z,3.28
2023-02-25T05:18:19.082Z,2.78
2023-02-25T05:20:47.685Z,2.58
2023-02-25T05:23:17.627Z,3.05
2023-02-25T05:25:45.185Z,2.90
2023-02-25T05:28:15.548Z,2.80
2023-02-25T05:30:42.921Z,2.63
2023-02-25T05:33:10.441Z,2.72
2023-02-25T05:35:45.135Z,2.40
2023-02-25T05:38:12.619Z,2.47
2023-02-25T05:40:40.268Z,2.35
2023-02-25T05:43:07.700Z,2.75
2023-02-25T05:45:36.868Z,2.88
2023-02-25T05:48:04.768Z,2.60
2023-02-25T05:50:34.709Z,3.30
2023-02-25T05:53:02.097Z,3.22
2023-02-25T05:55:29.712Z,2.55
2023-02-25T05:57:57.052Z,2.65
2023-02-25T06:00:24.342Z,2.63
2023-02-25T06:02:51.782Z,3.45
2023-02-25T06:05:19.251Z,2.83
2023-02-25T06:07:46.622Z,3.28
2023-02-25T06:10:13.933Z,4.00
2023-02-25T06:12:45.661Z,3.33
2023-02-25T06:15:14.702Z,3.05
2023-02-25T06:17:42.105Z,3.15
2023-02-25T06:20:09.634Z,3.83
2023-02-25T06:22:37.506Z,3.83
2023-02-25T06:25:04.901Z,3.42
2023-02-25T06:27:32.352Z,3.47
2023-02-25T06:30:03.359Z,2.75
2023-02-25T06:32:30.860Z,2.70
2023-02-25T06:35:01.410Z,3.03
2023-02-25T06:37:28.908Z,3.45
2023-02-25T06:39:56.377Z,3.30
2023-02-25T06:42:23.840Z,3.05
2023-02-25T06:44:51.154Z,3.38
2023-02-25T06:47:18.783Z,3.33
2023-02-25T06:49:46.204Z,4.25
2023-02-25T06:52:13.543Z,3.00
2023-02-25T06:54:40.904Z,2.85
2023-02-25T06:57:08.201Z,2.30
2023-02-25T06:59:35.991Z,2.67
2023-02-25T07:02:03.457Z,2.55
2023-02-25T07:04:30.826Z,2.30
2023-02-25T07:06:58.265Z,2.42
2023-02-25T07:09:25.620Z,2.50
2023-02-25T07:11:52.876Z,2.13
2023-02-25T07:14:20.225Z,2.35
2023-02-25T07:16:47.824Z,2.15
2023-02-25T07:19:16.659Z,2.20
2023-02-25T07:21:44.505Z,1.90
2023-02-25T07:24:12.301Z,2.22
2023-02-25T07:26:39.897Z,2.15
2023-02-25T07:29:07.580Z,1.90
2023-02-25T07:31:35.110Z,1.65
2023-02-25T07:34:04.445Z,1.73
2023-02-25T07:36:36.094Z,1.50
2023-02-25T07:39:04.439Z,1.65
2023-02-25T07:41:31.824Z,1.55
2023-02-25T07:43:59.611Z,1.75
2023-02-25T07:46:27.061Z,1.48
2023-02-25T07:48:54.495Z,1.15
2023-02-25T07:51:23.360Z,1.35
2023-02-25T07:53:52.147Z,1.77
2023-02-25T07:56:20.368Z,1.83
2023-02-25T07:58:47.619Z,1.50
2023-02-25T08:01:26.028Z,1.55
2023-02-25T08:03:54.371Z,1.83
2023-02-25T08:06:21.845Z,2.10
2023-02-25T08:08:52.219Z,2.22
2023-02-25T08:11:20.371Z,1.45
2023-02-25T08:13:47.677Z,1.90
2023-02-25T08:16:16.454Z,1.52
2023-02-25T08:18:44.222Z,1.60
2023-02-25T08:21:12.231Z,1.60
2023-02-25T08:23:39.856Z,2.78
2023-02-25T08:26:09.730Z,1.80
2023-02-25T08:28:37.443Z,2.15
2023-02-25T08:31:05.508Z,2.03
2023-02-25T08:33:33.051Z,1.80
2023-02-25T08:36:26.980Z,1.92
2023-02-25T08:38:58.394Z,1.95
2023-02-25T08:41:26.603Z,1.88
2023-02-25T08:43:55.103Z,1.98
2023-02-25T08:46:27.277Z,1.50
2023-02-25T08:48:54.929Z,1.70
2023-02-25T08:51:24.143Z,1.85
2023-02-25T08:53:52.325Z,1.98
2023-02-25T08:56:19.675Z,1.77
2023-02-25T08:58:47.128Z,1.67
2023-02-25T09:01:15.646Z,1.90
2023-02-25T09:03:53.331Z,2.30
2023-02-25T09:06:21.963Z,2.38
2023-02-25T09:08:49.639Z,2.95
2023-02-25T09:11:17.191Z,2.85
2023-02-25T09:13:44.451Z,2.38
2023-02-25T09:16:11.749Z,3.35
2023-02-25T09:18:39.111Z,2.33
2023-02-25T09:21:06.472Z,2.88
2023-02-25T09:23:33.857Z,2.00
2023-02-25T09:26:04.857Z,2.45
2023-02-25T09:28:32.097Z,1.98
2023-02-25T09:30:59.572Z,1.92
2023-02-25T09:33:27.358Z,1.70
2023-02-25T09:35:54.736Z,2.15
2023-02-25T09:38:22.119Z,1.60
2023-02-25T09:40:50.259Z,1.85
2023-02-25T09:43:29.837Z,2.65
2023-02-25T09:46:04.013Z,1.60
2023-02-25T09:48:34.008Z,1.65
2023-02-25T09:51:22.803Z,1.70
2023-02-25T09:53:53.923Z,1.75
2023-02-25T09:56:22.617Z,1.95
2023-02-25T09:58:53.999Z,1.73
2023-02-25T10:01:34.468Z,2.13
2023-02-25T10:04:01.994Z,1.80
2023-02-25T10:06:30.209Z,2.00
2023-02-25T10:09:23.885Z,1.95
2023-02-25T10:14:28.150Z,1.67
2023-02-25T10:17:05.772Z,1.40
2023-02-25T10:19:51.949Z,1.40
2023-02-25T10:22:39.807Z,1.40
2023-02-25T10:25:12.862Z,1.75
2023-02-25T10:27:45.000Z,1.67
2023-02-25T10:30:12.431Z,2.45
2023-02-25T10:32:41.866Z,1.83
2023-02-25T10:35:27.204Z,1.85
2023-02-25T10:37:54.473Z,1.70
2023-02-25T10:40:23.208Z,1.65
2023-02-25T10:42:51.741Z,1.50
2023-02-25T10:45:29.846Z,2.17
2023-02-25T10:48:16.866Z,1.42
2023-02-25T10:50:46.206Z,1.40
2023-02-25T10:53:13.750Z,1.83
2023-02-25T10:55:44.165Z,1.55
2023-02-25T10:58:29.106Z,1.45
2023-02-25T11:00:58.579Z,1.15
2023-02-25T11:03:26.199Z,1.30
2023-02-25T11:05:55.164Z,2.75
2023-02-25T11:08:31.604Z,1.33
2023-02-25T11:11:11.714Z,1.58
2023-02-25T11:13:44.377Z,1.88
2023-02-25T11:16:13.686Z,1.77
2023-02-25T11:19:00.130Z,1.40
2023-02-25T11:21:43.024Z,1.40
2023-02-25T11:24:15.376Z,1.40
2023-02-25T11:26:44.934Z,1.25
2023-02-25T11:29:15.619Z,1.20
2023-02-25T11:31:49.863Z,1.30
2023-02-25T11:34:25.692Z,1.20
2023-02-25T11:36:56.053Z,1.50
2023-02-25T11:39:45.086Z,1.42
2023-02-25T11:42:26.791Z,1.42
2023-02-25T11:45:01.477Z,1.77
2023-02-25T11:47:38.267Z,1.05
2023-02-25T11:50:09.192Z,1.35
2023-02-25T11:52:41.361Z,1.70
2023-02-25T11:55:10.892Z,1.40
2023-02-25T11:57:38.249Z,1.35
2023-02-25T12:00:28.654Z,1.58
2023-02-25T12:02:55.985Z,1.40
2023-02-25T12:05:29.498Z,1.63
2023-02-25T12:08:13.458Z,1.23
2023-02-25T12:10:44.395Z,1.30
2023-02-25T12:13:14.642Z,1.40
2023-02-25T12:15:41.778Z,1.63
2023-02-25T12:18:27.687Z,1.30
2023-02-25T12:20:58.283Z,1.27
2023-02-25T12:23:40.491Z,1.23
2023-02-25T12:26:37.057Z,1.30
2023-02-25T12:29:07.261Z,0.90
2023-02-25T12:31:40.190Z,1.30
2023-02-25T12:34:07.786Z,1.23
2023-02-25T12:36:59.282Z,1.23
2023-02-25T12:39:48.260Z,1.10
2023-02-25T12:42:21.635Z,1.10
2023-02-25T12:44:51.998Z,1.50
2023-02-25T12:47:26.349Z,1.25
2023-02-25T12:49:54.872Z,1.45
2023-02-25T12:52:51.556Z,1.38
2023-02-25T12:55:18.844Z,1.50
2023-02-25T12:58:05.602Z,1.50
2023-02-25T13:00:38.858Z,1.70
2023-02-25T13:03:41.714Z,1.40
2023-02-25T13:06:27.787Z,1.50
2023-02-25T13:08:55.113Z,1.40
2023-02-25T13:11:28.693Z,1.30
2023-02-25T13:13:56.345Z,1.40
2023-02-25T13:16:23.757Z,1.50
2023-02-25T13:18:57.210Z,1.27
2023-02-25T13:21:36.497Z,1.60
2023-02-25T13:24:17.911Z,1.40
2023-02-25T13:26:45.363Z,1.55
2023-02-25T13:29:31.314Z,1.40
2023-02-25T13:32:07.738Z,1.35
2023-02-25T13:34:47.355Z,1.20
2023-02-25T13:37:41.233Z,1.33
2023-02-25T13:40:27.421Z,1.33
2023-02-25T13:43:13.462Z,1.08
2023-02-25T13:45:57.792Z,1.05
2023-02-25T13:48:24.983Z,1.10
2023-02-25T13:51:11.823Z,1.10
2023-02-25T13:53:57.868Z,1.23
2023-02-25T13:56:44.045Z,1.25
2023-02-25T13:59:19.541Z,2.83
2023-02-25T14:01:49.719Z,2.45
2023-02-25T14:04:17.009Z,1.38
2023-02-25T14:07:03.070Z,1.90
2023-02-25T14:09:30.320Z,1.48
2023-02-25T14:12:11.357Z,1.63
2023-02-25T14:14:45.834Z,1.75
2023-02-25T14:17:13.138Z,1.52
2023-02-25T14:19:59.080Z,1.55
2023-02-25T14:22:44.631Z,1.52
2023-02-25T14:25:21.113Z,1.02
2023-02-25T14:28:05.994Z,1.20
2023-02-25T14:30:42.088Z,1.20
2023-02-25T14:33:12.504Z,1.60
2023-02-25T14:35:49.482Z,1.15
2023-02-25T14:38:22.748Z,1.48
2023-02-25T14:41:02.836Z,1.45
2023-02-25T14:43:34.554Z,2.08
2023-02-25T14:46:11.593Z,1.20
2023-02-25T14:48:45.775Z,1.48
2023-02-25T14:51:24.380Z,1.63
2023-02-25T14:54:13.137Z,1.70
2023-02-25T14:56:44.851Z,1.40
2023-02-25T14:59:12.120Z,1.67
2023-02-25T15:01:49.621Z,1.73
2023-02-25T15:04:17.166Z,1.25
2023-02-25T15:06:56.604Z,1.45
2023-02-25T15:09:28.694Z,1.45
2023-02-25T15:12:25.426Z,2.67
2023-02-25T15:15:11.681Z,2.40
2023-02-25T15:17:45.297Z,1.73
2023-02-25T15:20:48.264Z,1.50
2023-02-25T15:23:16.568Z,2.10
2023-02-25T15:25:45.568Z,2.13
2023-02-25T15:28:31.111Z,2.38
2023-02-25T15:31:01.614Z,2.17
2023-02-25T15:33:29.132Z,1.83
2023-02-25T15:35:58.076Z,2.05
2023-02-25T15:38:34.706Z,1.92
2023-02-25T15:41:02.352Z,1.58
2023-02-25T15:43:40.697Z,1.70
2023-02-25T15:46:08.028Z,1.70
2023-02-25T15:48:36.314Z,1.73
2023-02-25T15:51:04.545Z,1.77
2023-02-25T15:53:39.620Z,1.73
2023-02-25T15:56:07.024Z,1.77
2023-02-25T15:58:34.376Z,1.83
2023-02-25T16:01:02.507Z,2.00
2023-02-25T16:03:36.095Z,1.70
2023-02-25T16:06:19.635Z,1.63
2023-02-25T16:09:05.574Z,1.40
2023-02-25T16:11:39.345Z,1.75
2023-02-25T16:14:08.554Z,1.65
2023-02-25T16:16:37.166Z,1.60
2023-02-25T16:19:07.014Z,1.85
2023-02-25T16:21:34.417Z,2.40
2023-02-25T16:24:01.908Z,2.88
2023-02-25T16:26:31.519Z,1.67
2023-02-25T16:28:58.798Z,1.50
2023-02-25T16:31:47.366Z,1.83
2023-02-25T16:34:26.765Z,1.50
2023-02-25T16:37:26.467Z,2.05
2023-02-25T16:39:53.765Z,1.70
2023-02-25T16:42:21.494Z,1.60
2023-02-25T16:44:56.552Z,1.67
2023-02-25T16:47:30.652Z,1.77
2023-02-25T16:49:59.057Z,1.55
2023-02-25T16:52:31.400Z,2.03
2023-02-25T16:55:00.669Z,1.57
2023-02-25T16:57:28.223Z,1.60
2023-02-25T17:00:14.321Z,2.15
2023-02-25T17:02:49.431Z,1.80
2023-02-25T17:05:33.486Z,1.83
2023-02-25T17:08:02.138Z,1.75
2023-02-25T17:10:34.026Z,3.05
2023-02-25T17:13:03.022Z,1.73
2023-02-25T17:15:32.151Z,1.60
2023-02-25T17:18:07.021Z,1.58
2023-02-25T17:20:35.010Z,1.30
2023-02-25T17:23:04.874Z,1.55
2023-02-25T17:25:37.330Z,1.80
2023-02-25T17:28:05.208Z,1.85
2023-02-25T17:30:38.664Z,1.52
2023-02-25T17:33:06.282Z,1.73
2023-02-25T17:35:33.646Z,1.85
2023-02-25T17:38:01.064Z,1.77
2023-02-25T17:40:29.095Z,1.40
2023-02-25T17:43:16.072Z,2.10
2023-02-25T17:45:46.118Z,1.73
2023-02-25T17:48:21.196Z,1.52
2023-02-25T17:51:01.949Z,1.40
2023-02-25T17:53:38.610Z,1.58
2023-02-25T17:56:10.019Z,1.35
2023-02-25T17:58:37.389Z,2.25
2023-02-25T18:01:05.968Z,2.75
2023-02-25T18:03:43.766Z,2.40
2023-02-25T18:06:31.570Z,1.52
2023-02-25T18:09:02.659Z,1.80
2023-02-25T18:11:38.338Z,1.55
2023-02-25T18:14:20.098Z,1.75
2023-02-25T18:16:47.356Z,2.10
2023-02-25T18:19:36.935Z,2.42
2023-02-25T18:22:06.777Z,1.88
2023-02-25T18:24:35.192Z,1.85
2023-02-25T18:27:20.375Z,2.30
2023-02-25T18:29:48.126Z,1.70
2023-02-25T18:32:16.099Z,1.65
2023-02-25T18:34:43.421Z,2.50
2023-02-25T18:37:13.701Z,2.03
2023-02-25T18:39:41.062Z,1.40
2023-02-25T18:42:11.075Z,2.10
2023-02-25T18:44:38.265Z,1.92
2023-02-25T18:47:05.474Z,1.73
2023-02-25T18:49:32.694Z,1.65
2023-02-25T18:51:59.940Z,2.03
2023-02-25T18:54:27.160Z,2.00
2023-02-25T18:56:54.402Z,1.95
2023-02-25T18:59:21.559Z,2.05
2023-02-25T19:01:48.919Z,2.05
2023-02-25T19:04:17.269Z,1.48
2023-02-25T19:06:44.568Z,1.60
2023-02-25T19:09:11.809Z,2.53
2023-02-25T19:11:39.116Z,1.90
2023-02-25T19:14:08.286Z,1.50
2023-02-25T19:16:35.785Z,2.92
2023-02-25T19:19:03.022Z,2.35
2023-02-25T19:21:32.104Z,1.58
2023-02-25T19:23:59.313Z,2.10
2023-02-25T19:26:26.836Z,2.25
2023-02-25T19:28:54.291Z,1.88
2023-02-25T19:31:22.595Z,1.75
2023-02-25T19:33:49.799Z,1.83
2023-02-25T19:36:17.023Z,1.73
2023-02-25T19:38:44.268Z,1.50
2023-02-25T19:41:14.279Z,1.60
2023-02-25T19:43:41.518Z,1.35
2023-02-25T19:46:09.597Z,1.33
2023-02-25T19:48:36.954Z,1.58
2023-02-25T19:51:08.350Z,1.40
2023-02-25T19:53:35.933Z,1.92
2023-02-25T19:56:03.316Z,1.83
2023-02-25T19:58:31.941Z,1.60
2023-02-25T20:01:03.543Z,1.40
2023-02-25T20:03:30.842Z,1.80
2023-02-25T20:05:58.168Z,1.77
2023-02-25T20:08:25.442Z,1.67
2023-02-25T20:10:52.669Z,2.25
2023-02-25T20:13:19.854Z,1.67
2023-02-25T20:15:47.047Z,2.20
2023-02-25T20:18:14.573Z,1.85
2023-02-25T20:20:42.600Z,2.63
2023-02-25T20:23:09.884Z,2.30
2023-02-25T20:25:37.143Z,2.10
2023-02-25T20:28:04.539Z,2.08
2023-02-25T20:30:31.751Z,2.20
2023-02-25T20:32:59.364Z,2.60
2023-02-25T20:35:36.261Z,2.88
2023-02-25T20:38:14.393Z,2.60
2023-02-25T20:40:42.006Z,2.97
2023-02-25T20:43:12.640Z,2.58
2023-02-25T20:45:40.020Z,2.65
2023-02-25T20:48:08.201Z,2.20
2023-02-25T20:50:35.572Z,2.80
2023-02-25T20:53:02.983Z,2.85
2023-02-25T20:55:30.721Z,2.67
2023-02-25T20:57:58.001Z,2.72
2023-02-25T21:00:25.993Z,3.08
2023-02-25T21:02:53.243Z,2.78
2023-02-25T21:05:20.647Z,2.88
2023-02-25T21:07:48.022Z,3.00
2023-02-25T21:10:15.490Z,2.90
2023-02-25T21:12:42.802Z,2.50
2023-02-25T21:15:10.549Z,2.33
2023-02-25T21:17:38.056Z,2.38
2023-02-25T21:20:07.014Z,2.40
2023-02-25T21:22:35.257Z,2.75
2023-02-25T21:25:03.477Z,2.58
2023-02-25T21:27:31.309Z,2.50
2023-02-25T21:29:59.661Z,2.35
2023-02-25T21:32:27.016Z,3.17
2023-02-25T21:34:54.332Z,3.20
2023-02-25T21:37:21.738Z,3.10
2023-02-25T21:39:49.320Z,2.40
2023-02-25T21:42:16.543Z,2.78
2023-02-25T21:44:43.714Z,2.70
2023-02-25T21:47:10.965Z,2.33
2023-02-25T21:49:38.193Z,2.90
2023-02-25T21:52:05.520Z,2.35
2023-02-25T21:54:32.779Z,2.92
2023-02-25T21:56:59.988Z,2.60
2023-02-25T21:59:27.792Z,3.10
2023-02-25T22:01:55.031Z,2.72
2023-02-25T22:04:22.302Z,2.58
2023-02-25T22:06:49.585Z,2.40
2023-02-25T22:09:18.107Z,3.30
2023-02-25T22:11:45.296Z,2.83
2023-02-25T22:14:12.603Z,2.90
2023-02-25T22:16:40.130Z,3.08
2023-02-25T22:19:07.397Z,3.00
2023-02-25T22:21:35.648Z,2.75
2023-02-25T22:24:03.643Z,2.72
2023-02-25T22:26:32.029Z,2.35
2023-02-25T22:29:00.698Z,2.08
2023-02-25T22:31:28.098Z,2.15
2023-02-25T22:33:57.346Z,1.98
2023-02-25T22:36:25.338Z,2.10
2023-02-25T22:38:53.030Z,2.17
2023-02-25T22:41:21.429Z,2.10
2023-02-25T22:43:49.078Z,2.38
2023-02-25T22:46:29.715Z,2.47
2023-02-25T22:48:57.164Z,2.28
2023-02-25T22:51:25.981Z,1.95
2023-02-25T22:53:53.661Z,2.38
2023-02-25T22:56:21.103Z,1.90
2023-02-25T22:58:50.118Z,2.15
2023-02-25T23:01:19.415Z,2.60
2023-02-25T23:03:47.679Z,1.88
2023-02-25T23:06:15.682Z,2.25
2023-02-25T23:08:43.565Z,2.55
2023-02-25T23:11:15.096Z,2.50
2023-02-25T23:13:46.235Z,2.20
2023-02-25T23:16:17.664Z,2.00
2023-02-25T23:18:45.137Z,2.22
2023-02-25T23:21:16.505Z,2.78
2023-02-25T23:23:44.109Z,2.05
2023-02-25T23:26:13.373Z,2.38
2023-02-25T23:28:40.979Z,2.47
2023-02-25T23:31:08.514Z,2.55
2023-02-25T23:33:35.781Z,2.35
2023-02-25T23:36:06.081Z,2.20
2023-02-25T23:38:36.315Z,2.33
2023-02-25T23:41:04.339Z,2.50
2023-02-25T23:43:31.539Z,2.50
2023-02-25T23:46:02.744Z,2.10
2023-02-25T23:48:29.955Z,1.90
2023-02-25T23:50:57.306Z,1.77
2023-02-25T23:53:24.549Z,2.03
2023-02-25T23:55:51.751Z,1.60
2023-02-25T23:58:21.658Z,1.75
